createdAt,value
2019-04-14T00:01:02.225Z,41.67
2019-04-14T00:06:05.419Z,41.27
2019-04-14T00:11:06.612Z,39.20
2019-04-14T00:16:07.926Z,38.30
2019-04-14T00:21:09.045Z,39.73
2019-04-14T00:26:25.506Z,37.60
2019-04-14T00:31:28.549Z,37.83
2019-04-14T00:36:43.850Z,41.10
2019-04-14T00:41:50.880Z,44.10
2019-04-14T00:46:51.903Z,48.30
2019-04-14T00:51:53.018Z,48.87
2019-04-14T00:56:54.226Z,49.37
2019-04-14T01:01:55.379Z,48.77
2019-04-14T01:06:57.589Z,43.37
2019-04-14T01:11:59.511Z,46.00
2019-04-14T01:17:00.702Z,47.53
2019-04-14T01:22:03.195Z,41.67
2019-04-14T01:27:05.944Z,43.40
2019-04-14T01:32:07.299Z,44.07
2019-04-14T01:37:09.307Z,44.77
2019-04-14T01:42:11.581Z,48.13
2019-04-14T01:47:13.758Z,46.90
2019-04-14T01:52:20.941Z,48.60
2019-04-14T01:57:24.286Z,48.13
2019-04-14T02:02:27.399Z,44.80
2019-04-14T02:07:29.663Z,47.27
2019-04-14T02:12:30.895Z,48.23
2019-04-14T02:17:32.766Z,46.77
2019-04-14T02:22:35.479Z,47.67
2019-04-14T02:27:36.784Z,43.30
2019-04-14T02:33:07.724Z,42.33
2019-04-14T02:38:18.294Z,43.13
2019-04-14T02:43:21.113Z,44.40
2019-04-14T02:48:29.157Z,47.03
2019-04-14T02:53:32.574Z,44.50
2019-04-14T02:58:28.651Z,46.33
2019-04-14T03:03:27.831Z,43.03
2019-04-14T03:08:29.424Z,44.93
2019-04-14T03:13:28.777Z,44.67
2019-04-14T03:18:44.012Z,43.90
2019-04-14T03:23:56.292Z,48.63
2019-04-14T03:28:58.868Z,45.57
2019-04-14T03:34:26.761Z,40.93
2019-04-14T03:39:06.078Z,40.50
2019-04-14T03:49:17.942Z,50.57
2019-04-14T03:54:15.438Z,46.80
2019-04-14T03:58:57.601Z,50.50
2019-04-14T04:03:58.955Z,48.63
2019-04-14T04:09:00.050Z,52.27
2019-04-14T04:14:01.439Z,50.30
2019-04-14T04:19:13.014Z,46.63
2019-04-14T04:24:12.863Z,45.23
2019-04-14T04:29:20.015Z,49.07
2019-04-14T04:34:42.354Z,48.70
2019-04-14T04:39:58.253Z,44.43
2019-04-14T04:44:59.601Z,49.77
2019-04-14T04:50:02.284Z,55.90
2019-04-14T04:55:04.616Z,53.33
2019-04-14T05:00:07.098Z,52.87
2019-04-14T05:05:47.057Z,58.10
2019-04-14T05:10:50.337Z,53.40
2019-04-14T05:15:53.227Z,54.83
2019-04-14T05:20:55.411Z,51.47
2019-04-14T05:25:57.871Z,52.67
2019-04-14T05:30:59.353Z,62.70
2019-04-14T05:36:00.457Z,54.60
2019-04-14T05:41:02.656Z,65.30
2019-04-14T05:46:03.980Z,55.13
2019-04-14T05:51:06.280Z,53.90
2019-04-14T05:56:07.978Z,51.83
2019-04-14T06:01:11.226Z,50.00
2019-04-14T06:06:12.561Z,51.13
2019-04-14T06:11:13.661Z,51.73
2019-04-14T06:16:14.764Z,50.07
2019-04-14T06:21:15.865Z,50.83
2019-04-14T06:26:16.990Z,49.60
2019-04-14T06:31:32.092Z,51.67
2019-04-14T06:36:35.093Z,49.70
2019-04-14T06:41:36.208Z,52.67
2019-04-14T06:46:37.297Z,49.67
2019-04-14T06:51:38.388Z,47.53
2019-04-14T06:56:39.480Z,47.93
2019-04-14T07:01:40.560Z,47.53
2019-04-14T07:06:41.650Z,48.07
2019-04-14T07:11:42.764Z,48.67
2019-04-14T07:16:43.833Z,42.70
2019-04-14T07:21:44.932Z,45.47
2019-04-14T07:26:46.063Z,43.80
2019-04-14T07:31:49.059Z,44.00
2019-04-14T07:37:01.119Z,43.57
2019-04-14T07:42:19.172Z,41.93
2019-04-14T07:47:35.427Z,42.93
2019-04-14T07:52:38.438Z,42.43
2019-04-14T07:57:53.603Z,41.33
2019-04-14T08:03:08.859Z,42.27
2019-04-14T08:08:11.474Z,45.13
2019-04-14T08:13:12.563Z,41.33
2019-04-14T08:18:13.662Z,39.53
2019-04-14T08:23:14.780Z,40.93
2019-04-14T08:28:15.886Z,38.50
2019-04-14T08:33:16.991Z,41.53
2019-04-14T08:38:18.084Z,40.50
2019-04-14T08:43:21.247Z,39.27
2019-04-14T08:48:36.325Z,36.93
2019-04-14T08:53:45.117Z,36.00
2019-04-14T08:58:57.271Z,34.87
2019-04-14T09:04:00.301Z,32.10
2019-04-14T09:09:12.407Z,28.70
2019-04-14T09:14:13.601Z,28.10
2019-04-14T09:19:14.696Z,28.63
2019-04-14T09:24:15.794Z,32.53
2019-04-14T09:29:16.914Z,34.30
2019-04-14T09:34:18.007Z,28.50
2019-04-14T09:39:19.100Z,29.83
2019-04-14T09:44:20.227Z,32.83
2019-04-14T09:49:21.332Z,31.83
2019-04-14T09:54:22.428Z,34.17
2019-04-14T09:59:23.537Z,28.97
2019-04-14T10:04:24.643Z,27.80
2019-04-14T10:09:26.387Z,26.03
2019-04-14T10:14:27.651Z,27.63
2019-04-14T10:19:28.754Z,27.77
2019-04-14T10:24:29.869Z,25.03
2019-04-14T10:29:31.003Z,26.80
2019-04-14T10:34:32.208Z,30.07
2019-04-14T10:39:33.306Z,31.10
2019-04-14T10:44:34.438Z,26.30
2019-04-14T10:49:35.528Z,28.77
2019-04-14T10:54:36.629Z,28.37
2019-04-14T10:59:37.727Z,28.97
2019-04-14T11:04:38.853Z,25.83
2019-04-14T11:09:39.965Z,31.93
2019-04-14T11:14:41.167Z,27.00
2019-04-14T11:19:42.244Z,28.10
2019-04-14T11:24:43.351Z,28.10
2019-04-14T11:29:44.538Z,26.70
2019-04-14T11:34:47.679Z,25.20
2019-04-14T11:39:48.817Z,26.30
2019-04-14T11:44:50.120Z,29.00
2019-04-14T11:49:51.226Z,24.50
2019-04-14T11:54:52.549Z,24.83
2019-04-14T11:59:55.567Z,27.73
2019-04-14T12:05:12.720Z,27.17
2019-04-14T12:10:13.921Z,24.67
2019-04-14T12:15:16.601Z,26.17
2019-04-14T12:20:18.031Z,26.90
2019-04-14T12:25:19.132Z,26.23
2019-04-14T12:30:20.354Z,29.80
2019-04-14T12:35:21.756Z,28.33
2019-04-14T12:40:22.983Z,26.80
2019-04-14T12:45:28.760Z,25.07
2019-04-14T12:50:34.540Z,27.10
2019-04-14T12:55:35.716Z,26.10
2019-04-14T13:00:44.901Z,25.13
2019-04-14T13:05:46.128Z,26.23
2019-04-14T13:10:47.328Z,23.73
2019-04-14T13:15:48.534Z,29.90
2019-04-14T13:20:49.649Z,29.40
2019-04-14T13:25:50.755Z,21.57
2019-04-14T13:30:52.784Z,22.37
2019-04-14T13:35:53.916Z,19.13
2019-04-14T13:40:55.133Z,21.63
2019-04-14T13:45:59.761Z,23.87
2019-04-14T13:51:00.110Z,21.67
2019-04-14T13:56:01.330Z,21.87
2019-04-14T14:01:02.754Z,21.17
2019-04-14T14:06:03.967Z,21.43
2019-04-14T14:11:25.303Z,19.23
2019-04-14T14:16:34.575Z,17.53
2019-04-14T14:21:46.891Z,21.10
2019-04-14T14:26:49.899Z,16.23
2019-04-14T14:31:51.746Z,15.63
2019-04-14T14:36:52.844Z,18.60
2019-04-14T14:41:54.218Z,17.67
2019-04-14T14:47:09.299Z,17.33
2019-04-14T14:52:12.398Z,19.77
2019-04-14T14:57:13.512Z,16.47
2019-04-14T15:02:14.736Z,17.13
2019-04-14T15:07:15.844Z,17.30
2019-04-14T15:12:16.971Z,18.73
2019-04-14T15:17:18.775Z,17.23
2019-04-14T15:22:19.922Z,15.97
2019-04-14T15:27:21.155Z,15.83
2019-04-14T15:32:22.280Z,15.50
2019-04-14T15:37:23.429Z,15.47
2019-04-14T15:42:24.969Z,21.73
2019-04-14T15:47:26.055Z,16.10
2019-04-14T15:52:27.185Z,15.97
2019-04-14T15:57:45.700Z,16.23
2019-04-14T16:02:51.533Z,17.03
2019-04-14T16:07:54.548Z,15.33
2019-04-14T16:13:09.389Z,15.57
2019-04-14T16:18:21.469Z,14.93
2019-04-14T16:23:22.754Z,17.40
2019-04-14T16:28:35.053Z,19.87
2019-04-14T16:33:38.119Z,17.97
2019-04-14T16:38:39.327Z,17.13
2019-04-14T16:43:40.703Z,16.57
2019-04-14T16:48:41.884Z,14.93
2019-04-14T16:53:45.053Z,16.50
2019-04-14T16:58:54.182Z,14.03
2019-04-14T17:03:55.331Z,15.40
2019-04-14T17:08:56.424Z,14.20
2019-04-14T17:14:00.397Z,14.73
2019-04-14T17:19:03.583Z,15.87
2019-04-14T17:24:16.354Z,15.47
2019-04-14T17:29:11.782Z,16.20
2019-04-14T17:34:20.665Z,16.23
2019-04-14T17:39:32.472Z,19.13
2019-04-14T17:44:38.362Z,20.53
2019-04-14T17:49:41.397Z,18.13
2019-04-14T17:54:56.355Z,17.20
2019-04-14T18:00:15.936Z,18.30
2019-04-14T18:05:19.077Z,21.23
2019-04-14T18:10:22.107Z,20.20
2019-04-14T18:15:25.258Z,19.93
2019-04-14T18:20:28.351Z,20.03
2019-04-14T18:25:29.483Z,23.03
2019-04-14T18:30:32.642Z,23.63
2019-04-14T18:35:54.197Z,22.93
2019-04-14T18:41:15.619Z,22.30
2019-04-14T18:46:21.962Z,25.37
2019-04-14T18:51:24.987Z,26.53
2019-04-14T18:56:31.126Z,24.63
2019-04-14T19:01:34.488Z,20.27
2019-04-14T19:06:35.886Z,20.43
2019-04-14T19:11:54.625Z,19.20
2019-04-14T19:17:04.039Z,20.63
2019-04-14T19:22:05.830Z,20.30
2019-04-14T19:27:07.094Z,17.30
2019-04-14T19:32:08.600Z,21.47
2019-04-14T19:37:09.713Z,24.37
2019-04-14T19:42:10.861Z,25.57
2019-04-14T19:47:11.990Z,26.50
2019-04-14T19:52:13.347Z,32.03
2019-04-14T19:57:14.445Z,31.23
2019-04-14T20:02:15.672Z,33.33
2019-04-14T20:07:16.775Z,30.70
2019-04-14T20:12:18.186Z,32.63
2019-04-14T20:17:27.419Z,32.23
2019-04-14T20:22:47.191Z,25.17
2019-04-14T20:27:53.179Z,22.87
2019-04-14T20:32:54.409Z,25.93
2019-04-14T20:37:56.015Z,27.07
2019-04-14T20:42:57.137Z,27.07
2019-04-14T20:47:58.227Z,25.20
2019-04-14T20:52:59.339Z,24.40
2019-04-14T20:58:00.451Z,24.90
2019-04-14T21:03:12.297Z,28.40
2019-04-14T21:08:26.943Z,25.87
2019-04-14T21:13:30.162Z,24.37
2019-04-14T21:18:33.168Z,26.40
2019-04-14T21:23:45.812Z,30.80
2019-04-14T21:29:07.042Z,29.67
2019-04-14T21:34:10.076Z,26.70
2019-04-14T21:39:13.199Z,28.73
2019-04-14T21:44:14.335Z,26.40
2019-04-14T21:49:15.423Z,26.00
2019-04-14T21:54:17.321Z,24.07
2019-04-14T21:59:23.088Z,25.97
2019-04-14T22:04:32.352Z,24.73
2019-04-14T22:09:35.375Z,24.70
2019-04-14T22:14:36.557Z,26.20
2019-04-14T22:19:37.651Z,24.87
2019-04-14T22:24:38.756Z,24.80
2019-04-14T22:29:39.886Z,25.63
2019-04-14T22:34:40.992Z,23.07
2019-04-14T22:39:42.072Z,29.00
2019-04-14T22:44:43.291Z,25.00
2019-04-14T22:49:44.393Z,26.87
2019-04-14T22:54:45.494Z,24.27
2019-04-14T22:59:46.691Z,23.00
2019-04-14T23:04:49.703Z,19.83
2019-04-14T23:09:52.692Z,21.53
2019-04-14T23:14:55.697Z,25.87
2019-04-14T23:20:10.643Z,24.40
2019-04-14T23:25:11.937Z,25.60
2019-04-14T23:30:13.567Z,23.90
2019-04-14T23:35:14.747Z,23.40
2019-04-14T23:40:15.933Z,21.40
2019-04-14T23:45:17.047Z,20.10
2019-04-14T23:50:18.250Z,23.43
2019-04-14T23:55:19.452Z,23.57
